createdAt,value
2022-09-01T00:01:55.690Z,10.23
2022-09-01T00:04:27.165Z,10.27
2022-09-01T00:06:56.393Z,13.03
2022-09-01T00:09:24.814Z,10.30
2022-09-01T00:11:54.725Z,10.43
2022-09-01T00:14:29.934Z,11.87
2022-09-01T00:16:59.954Z,14.17
2022-09-01T00:19:29.630Z,10.97
2022-09-01T00:21:58.034Z,10.67
2022-09-01T00:24:26.663Z,10.57
2022-09-01T00:26:55.169Z,9.30
2022-09-01T00:29:25.475Z,12.17
2022-09-01T00:31:53.667Z,13.67
2022-09-01T00:34:21.843Z,13.97
2022-09-01T00:36:52.022Z,14.33
2022-09-01T00:39:19.901Z,15.67
2022-09-01T00:41:50.338Z,15.10
2022-09-01T00:44:23.262Z,15.60
2022-09-01T00:46:55.869Z,14.37
2022-09-01T00:49:29.767Z,12.27
2022-09-01T00:52:05.229Z,13.70
2022-09-01T00:54:37.034Z,12.60
2022-09-01T00:57:05.881Z,13.10
2022-09-01T00:59:34.104Z,18.23
2022-09-01T01:02:01.930Z,13.37
2022-09-01T01:04:30.225Z,13.83
2022-09-01T01:07:03.035Z,13.60
2022-09-01T01:09:34.415Z,13.07
2022-09-01T01:12:04.195Z,12.57
2022-09-01T01:14:32.345Z,14.27
2022-09-01T01:17:01.854Z,11.77
2022-09-01T01:19:57.845Z,10.13
2022-09-01T01:22:50.158Z,11.10
2022-09-01T01:25:22.345Z,11.80
2022-09-01T01:27:51.037Z,12.47
2022-09-01T01:30:20.857Z,12.93
2022-09-01T01:32:49.375Z,11.73
2022-09-01T01:35:20.634Z,12.53
2022-09-01T01:37:48.989Z,9.90
2022-09-01T01:40:20.348Z,13.23
2022-09-01T01:42:51.595Z,12.13
2022-09-01T01:45:22.596Z,11.67
2022-09-01T01:47:53.286Z,11.30
2022-09-01T01:50:21.722Z,13.53
2022-09-01T01:52:49.572Z,12.50
2022-09-01T01:55:28.953Z,14.47
2022-09-01T01:57:56.915Z,11.73
2022-09-01T02:00:30.537Z,10.53
2022-09-01T02:02:58.936Z,9.97
2022-09-01T02:05:32.135Z,8.50
2022-09-01T02:08:04.691Z,10.90
2022-09-01T02:10:35.987Z,9.40
2022-09-01T02:13:07.294Z,9.70
2022-09-01T02:15:44.189Z,9.53
2022-09-01T02:18:13.198Z,10.47
2022-09-01T02:20:41.114Z,10.47
2022-09-01T02:23:10.782Z,12.10
2022-09-01T02:26:14.136Z,14.27
2022-09-01T02:28:36.817Z,13.63
2022-09-01T02:31:06.002Z,13.43
2022-09-01T02:33:34.158Z,14.67
2022-09-01T02:36:04.415Z,21.97
2022-09-01T02:38:33.775Z,23.67
2022-09-01T02:41:04.171Z,27.33
2022-09-01T02:43:32.528Z,19.20
2022-09-01T02:46:02.669Z,20.33
2022-09-01T02:48:36.338Z,17.43
2022-09-01T02:51:05.650Z,17.13
2022-09-01T02:53:35.490Z,19.73
2022-09-01T02:56:09.531Z,20.60
2022-09-01T02:58:40.803Z,20.27
2022-09-01T03:01:13.524Z,19.13
2022-09-01T03:03:41.349Z,20.67
2022-09-01T03:06:10.213Z,17.47
2022-09-01T03:08:39.607Z,16.67
2022-09-01T03:11:12.989Z,14.87
2022-09-01T03:13:42.546Z,15.73
2022-09-01T03:16:11.249Z,14.87
2022-09-01T03:18:40.132Z,15.50
2022-09-01T03:21:09.528Z,17.33
2022-09-01T03:23:37.984Z,16.13
2022-09-01T03:26:06.026Z,14.23
2022-09-01T03:28:35.259Z,15.00
2022-09-01T03:31:03.023Z,13.77
2022-09-01T03:33:32.442Z,13.80
2022-09-01T03:36:00.226Z,12.50
2022-09-01T03:38:28.733Z,13.73
2022-09-01T03:41:02.206Z,12.50
2022-09-01T03:43:34.473Z,13.23
2022-09-01T03:46:05.650Z,14.23
2022-09-01T03:48:33.810Z,13.00
2022-09-01T03:51:02.693Z,14.17
2022-09-01T03:53:32.397Z,13.27
2022-09-01T03:56:00.314Z,10.93
2022-09-01T03:58:28.188Z,15.97
2022-09-01T04:01:01.154Z,15.13
2022-09-01T04:03:32.750Z,14.23
2022-09-01T04:06:02.544Z,15.70
2022-09-01T04:08:32.648Z,17.50
2022-09-01T04:11:05.053Z,13.37
2022-09-01T04:13:36.882Z,16.93
2022-09-01T04:16:10.496Z,13.00
2022-09-01T04:18:40.132Z,14.10
2022-09-01T04:21:10.496Z,12.40
2022-09-01T04:23:38.257Z,13.53
2022-09-01T04:26:10.015Z,13.70
2022-09-01T04:28:40.265Z,13.97
2022-09-01T04:31:14.879Z,12.00
2022-09-01T04:33:46.651Z,12.70
2022-09-01T04:36:19.246Z,13.50
2022-09-01T04:38:47.062Z,12.80
2022-09-01T04:41:17.708Z,12.13
2022-09-01T04:43:47.341Z,12.73
2022-09-01T04:46:15.516Z,13.50
2022-09-01T04:48:46.186Z,12.73
2022-09-01T04:51:15.451Z,14.97
2022-09-01T04:53:48.582Z,12.30
2022-09-01T04:56:19.476Z,14.70
2022-09-01T04:58:47.884Z,13.80
2022-09-01T05:01:17.459Z,15.10
2022-09-01T05:03:48.134Z,10.93
2022-09-01T05:06:17.683Z,13.27
2022-09-01T05:08:46.181Z,11.30
2022-09-01T05:11:16.902Z,13.67
2022-09-01T05:13:45.343Z,13.83
2022-09-01T05:16:15.772Z,10.73
2022-09-01T05:18:48.884Z,11.23
2022-09-01T05:21:19.865Z,13.73
2022-09-01T05:23:49.300Z,11.97
2022-09-01T05:26:19.531Z,12.77
2022-09-01T05:28:49.770Z,12.47
2022-09-01T05:31:19.696Z,12.60
2022-09-01T05:33:50.850Z,12.50
2022-09-01T05:36:20.475Z,12.87
2022-09-01T05:38:48.880Z,10.93
2022-09-01T05:41:20.342Z,11.20
2022-09-01T05:43:55.158Z,10.03
2022-09-01T05:46:28.137Z,12.03
2022-09-01T05:48:58.545Z,13.00
2022-09-01T05:51:46.252Z,12.77
2022-09-01T05:54:17.585Z,12.50
2022-09-01T05:56:46.198Z,12.33
2022-09-01T05:59:23.288Z,13.90
2022-09-01T06:01:53.420Z,14.40
2022-09-01T06:04:23.407Z,13.97
2022-09-01T06:07:08.807Z,12.87
2022-09-01T06:09:39.553Z,15.53
2022-09-01T06:12:08.456Z,13.40
2022-09-01T06:14:36.258Z,12.77
2022-09-01T06:17:04.211Z,15.17
2022-09-01T06:19:37.184Z,16.57
2022-09-01T06:22:05.623Z,14.43
2022-09-01T06:24:33.420Z,13.10
2022-09-01T06:27:01.231Z,17.30
2022-09-01T06:29:31.245Z,18.13
2022-09-01T06:32:02.260Z,15.40
2022-09-01T06:34:32.027Z,16.37
2022-09-01T06:37:01.170Z,16.13
2022-09-01T06:39:28.956Z,13.70
2022-09-01T06:41:59.048Z,17.47
2022-09-01T06:44:26.864Z,14.10
2022-09-01T06:46:54.991Z,14.63
2022-09-01T06:49:23.619Z,17.67
2022-09-01T06:51:51.780Z,14.27
2022-09-01T06:54:23.034Z,14.73
2022-09-01T06:56:51.836Z,16.47
2022-09-01T06:59:21.926Z,16.83
2022-09-01T07:01:52.635Z,14.47
2022-09-01T07:04:22.091Z,14.97
2022-09-01T07:07:53.084Z,14.40
2022-09-01T07:09:47.899Z,17.80
2022-09-01T07:12:27.873Z,15.93
2022-09-01T07:17:49.891Z,14.27
2022-09-01T07:23:07.357Z,14.87
2022-09-01T07:28:39.879Z,15.80
2022-09-01T07:39:54.905Z,12.37
2022-09-01T07:42:59.354Z,14.53
2022-09-01T07:45:29.597Z,11.03
2022-09-01T07:48:00.019Z,9.27
2022-09-01T07:53:19.617Z,11.30
2022-09-01T07:55:49.932Z,10.67
2022-09-01T07:58:20.284Z,12.20
2022-09-01T08:00:49.831Z,11.00
2022-09-01T08:03:19.872Z,10.93
2022-09-01T08:05:51.202Z,9.20
2022-09-01T08:08:19.339Z,10.20
2022-09-01T08:10:49.364Z,9.57
2022-09-01T08:13:22.205Z,11.13
2022-09-01T08:19:27.923Z,10.03
2022-09-01T08:21:55.701Z,8.57
2022-09-01T08:24:23.455Z,10.17
2022-09-01T08:26:51.213Z,10.33
2022-09-01T08:29:20.287Z,9.00
2022-09-01T08:31:48.428Z,8.13
2022-09-01T08:34:17.004Z,8.73
2022-09-01T08:36:44.789Z,9.00
2022-09-01T08:39:12.597Z,8.30
2022-09-01T08:41:47.406Z,9.57
2022-09-01T08:44:29.856Z,8.77
2022-09-01T08:47:04.428Z,11.17
2022-09-01T08:49:42.766Z,9.37
2022-09-01T08:52:20.595Z,9.13
2022-09-01T08:54:51.505Z,8.43
2022-09-01T08:57:24.475Z,9.67
2022-09-01T08:59:54.561Z,9.47
2022-09-01T09:02:36.811Z,7.97
2022-09-01T09:05:23.169Z,8.07
2022-09-01T09:08:08.358Z,9.83
2022-09-01T09:10:43.575Z,7.70
2022-09-01T09:13:16.982Z,7.77
2022-09-01T09:15:52.645Z,9.43
2022-09-01T09:18:39.301Z,8.03
2022-09-01T09:21:13.154Z,7.23
2022-09-01T09:23:46.308Z,10.47
2022-09-01T09:26:16.713Z,4.40
2022-09-01T09:28:47.918Z,6.83
2022-09-01T09:31:28.880Z,5.33
2022-09-01T09:33:57.975Z,4.20
2022-09-01T09:36:32.694Z,4.27
2022-09-01T09:39:13.131Z,3.80
2022-09-01T09:41:42.085Z,4.47
2022-09-01T09:44:23.070Z,4.23
2022-09-01T09:46:52.385Z,5.53
2022-09-01T09:49:34.668Z,3.80
2022-09-01T09:52:16.654Z,4.97
2022-09-01T09:55:00.640Z,5.03
2022-09-01T09:57:30.547Z,4.33
2022-09-01T10:00:02.529Z,3.77
2022-09-01T10:02:35.056Z,4.20
2022-09-01T10:05:22.367Z,3.90
2022-09-01T10:07:50.547Z,3.23
2022-09-01T10:10:32.965Z,4.37
2022-09-01T10:13:02.332Z,3.00
2022-09-01T10:15:33.368Z,3.07
2022-09-01T10:18:28.911Z,3.73
2022-09-01T10:21:00.081Z,3.80
2022-09-01T10:23:31.513Z,2.83
2022-09-01T10:26:05.935Z,4.07
2022-09-01T10:28:35.870Z,2.90
2022-09-01T10:31:05.230Z,4.67
2022-09-01T10:33:37.867Z,5.80
2022-09-01T10:36:08.158Z,2.93
2022-09-01T10:38:36.119Z,3.83
2022-09-01T10:41:14.994Z,6.37
2022-09-01T10:43:45.168Z,4.50
2022-09-01T10:46:50.166Z,3.87
2022-09-01T10:49:51.305Z,3.53
2022-09-01T10:52:58.871Z,3.30
2022-09-01T10:55:43.999Z,4.13
2022-09-01T11:05:17.703Z,5.20
2022-09-01T11:08:09.170Z,4.83
2022-09-01T11:10:55.782Z,5.30
2022-09-01T11:13:44.304Z,4.50
2022-09-01T11:16:49.340Z,3.57
2022-09-01T11:19:41.118Z,4.83
2022-09-01T11:22:29.506Z,5.70
2022-09-01T11:25:40.326Z,4.93
2022-09-01T11:28:42.756Z,5.27
2022-09-01T11:31:33.238Z,3.77
2022-09-01T11:34:16.673Z,4.77
2022-09-01T11:36:53.418Z,3.27
2022-09-01T11:39:33.025Z,4.77
2022-09-01T11:42:05.567Z,4.50
2022-09-01T11:44:40.470Z,3.77
2022-09-01T11:47:16.125Z,5.13
2022-09-01T11:49:51.304Z,3.43
2022-09-01T11:52:21.813Z,4.07
2022-09-01T11:54:51.277Z,3.50
2022-09-01T11:57:29.050Z,3.97
2022-09-01T11:59:59.830Z,3.63
2022-09-01T12:02:31.633Z,5.10
2022-09-01T12:05:00.824Z,2.73
2022-09-01T12:07:38.580Z,4.03
2022-09-01T12:10:16.694Z,4.90
2022-09-01T12:12:44.493Z,3.13
2022-09-01T12:15:22.767Z,3.77
2022-09-01T12:17:50.952Z,2.57
2022-09-01T12:20:29.672Z,3.73
2022-09-01T12:22:58.801Z,4.10
2022-09-01T12:25:29.076Z,3.40
2022-09-01T12:27:57.476Z,3.70
2022-09-01T12:30:27.529Z,4.17
2022-09-01T12:33:22.770Z,3.80
2022-09-01T12:35:43.885Z,5.80
2022-09-01T12:38:25.344Z,4.87
2022-09-01T12:40:55.011Z,3.67
2022-09-01T12:43:34.532Z,3.60
2022-09-01T12:46:04.722Z,3.93
2022-09-01T12:48:34.439Z,4.77
2022-09-01T12:51:04.506Z,2.90
2022-09-01T12:53:36.565Z,4.17
2022-09-01T12:56:19.794Z,3.77
2022-09-01T12:58:53.772Z,4.33
2022-09-01T13:01:29.565Z,4.10
2022-09-01T13:04:26.004Z,4.33
2022-09-01T13:06:54.704Z,5.70
2022-09-01T13:09:22.765Z,4.40
2022-09-01T13:12:07.436Z,5.40
2022-09-01T13:14:35.555Z,3.33
2022-09-01T13:17:05.398Z,3.53
2022-09-01T13:19:42.068Z,3.60
2022-09-01T13:22:09.861Z,3.90
2022-09-01T13:24:37.867Z,4.53
2022-09-01T13:27:21.781Z,4.40
2022-09-01T13:29:50.251Z,3.13
2022-09-01T13:32:21.701Z,3.03
2022-09-01T13:34:52.038Z,3.00
2022-09-01T13:37:20.265Z,2.30
2022-09-01T13:39:48.458Z,3.87
2022-09-01T13:42:16.844Z,3.50
2022-09-01T13:44:44.891Z,2.60
2022-09-01T13:47:29.610Z,2.30
2022-09-01T13:50:09.807Z,2.67
2022-09-01T13:52:39.470Z,2.83
2022-09-01T13:55:08.872Z,2.63
2022-09-01T13:57:37.026Z,3.47
2022-09-01T14:00:08.186Z,3.07
2022-09-01T14:02:36.727Z,2.87
2022-09-01T14:05:06.995Z,3.93
2022-09-01T14:07:34.902Z,4.33
2022-09-01T14:10:03.155Z,4.03
2022-09-01T14:12:32.548Z,4.93
2022-09-01T14:15:17.484Z,4.20
2022-09-01T14:17:48.187Z,4.80
2022-09-01T14:20:19.205Z,3.30
2022-09-01T14:22:47.563Z,3.07
2022-09-01T14:25:16.296Z,3.47
2022-09-01T14:27:44.674Z,4.80
2022-09-01T14:30:16.665Z,3.53
2022-09-01T14:32:44.896Z,3.13
2022-09-01T14:35:13.449Z,2.80
2022-09-01T14:37:43.962Z,2.90
2022-09-01T14:40:16.973Z,2.77
2022-09-01T14:42:49.276Z,3.03
2022-09-01T14:45:18.576Z,3.20
2022-09-01T14:47:46.957Z,3.30
2022-09-01T14:50:19.846Z,2.43
2022-09-01T14:52:54.225Z,2.93
2022-09-01T14:55:23.036Z,4.97
2022-09-01T14:57:51.072Z,5.07
2022-09-01T15:00:19.724Z,2.90
2022-09-01T15:02:48.309Z,3.10
2022-09-01T15:05:16.323Z,4.23
2022-09-01T15:07:44.710Z,4.03
2022-09-01T15:10:24.936Z,3.70
2022-09-01T15:12:54.468Z,4.60
2022-09-01T15:15:22.853Z,4.63
2022-09-01T15:17:50.986Z,6.23
2022-09-01T15:20:36.451Z,4.90
2022-09-01T15:23:07.050Z,5.43
2022-09-01T15:25:36.318Z,4.63
2022-09-01T15:28:04.887Z,5.37
2022-09-01T15:30:33.685Z,5.10
2022-09-01T15:33:01.533Z,6.47
2022-09-01T15:35:30.635Z,5.13
2022-09-01T15:37:58.684Z,6.70
2022-09-01T15:40:27.878Z,5.77
2022-09-01T15:42:58.377Z,5.10
2022-09-01T15:45:27.953Z,5.37
2022-09-01T15:47:55.757Z,5.03
2022-09-01T15:50:27.595Z,4.50
2022-09-01T15:52:58.554Z,4.37
2022-09-01T15:55:29.274Z,5.63
2022-09-01T15:58:00.087Z,3.87
2022-09-01T16:00:29.727Z,4.97
2022-09-01T16:03:01.558Z,3.90
2022-09-01T16:05:30.030Z,6.43
2022-09-01T16:07:58.083Z,4.57
2022-09-01T16:10:26.195Z,6.73
2022-09-01T16:12:54.036Z,4.83
2022-09-01T16:15:25.106Z,4.93
2022-09-01T16:18:06.993Z,4.13
2022-09-01T16:20:38.458Z,6.40
2022-09-01T16:23:14.926Z,6.00
2022-09-01T16:25:45.736Z,4.73
2022-09-01T16:28:27.366Z,5.93
2022-09-01T16:31:02.954Z,4.30
2022-09-01T16:33:30.831Z,6.47
2022-09-01T16:36:18.580Z,5.07
2022-09-01T16:38:50.889Z,5.90
2022-09-01T16:41:39.637Z,5.67
2022-09-01T16:44:16.852Z,5.63
2022-09-01T16:46:57.943Z,6.07
2022-09-01T16:49:33.131Z,5.10
2022-09-01T16:52:05.557Z,6.40
2022-09-01T16:54:45.544Z,5.30
2022-09-01T16:57:23.279Z,6.60
2022-09-01T16:59:55.735Z,4.43
2022-09-01T17:02:38.631Z,5.23
2022-09-01T17:05:17.794Z,4.60
2022-09-01T17:07:53.732Z,5.87
2022-09-01T17:10:37.188Z,5.23
2022-09-01T17:13:16.954Z,4.90
2022-09-01T17:15:53.373Z,6.60
2022-09-01T17:18:39.053Z,4.83
2022-09-01T17:21:14.704Z,4.87
2022-09-01T17:23:51.353Z,5.43
2022-09-01T17:26:25.863Z,5.70
2022-09-01T17:28:56.889Z,6.23
2022-09-01T17:31:41.755Z,4.87
2022-09-01T17:34:23.623Z,4.27
2022-09-01T17:37:05.478Z,4.90
2022-09-01T17:39:44.880Z,6.33
2022-09-01T17:42:24.951Z,4.90
2022-09-01T17:44:56.355Z,4.83
2022-09-01T17:47:35.792Z,8.53
2022-09-01T17:50:13.316Z,5.53
2022-09-01T17:52:53.110Z,5.60
2022-09-01T17:55:36.932Z,5.43
2022-09-01T17:58:11.789Z,5.30
2022-09-01T18:00:44.467Z,5.40
2022-09-01T18:03:27.291Z,7.60
2022-09-01T18:06:03.316Z,6.20
2022-09-01T18:08:38.255Z,6.10
2022-09-01T18:11:12.378Z,6.17
2022-09-01T18:13:54.087Z,7.33
2022-09-01T18:16:25.577Z,5.77
2022-09-01T18:18:54.202Z,7.07
2022-09-01T18:21:26.067Z,7.47
2022-09-01T18:23:59.007Z,7.53
2022-09-01T18:26:29.630Z,5.33
2022-09-01T18:28:57.787Z,5.93
2022-09-01T18:31:40.128Z,7.90
2022-09-01T18:34:15.971Z,6.57
2022-09-01T18:36:52.480Z,6.43
2022-09-01T18:39:27.718Z,6.43
2022-09-01T18:42:09.987Z,6.37
2022-09-01T18:44:48.804Z,5.50
2022-09-01T18:47:18.162Z,6.20
2022-09-01T18:49:55.871Z,8.23
2022-09-01T18:52:52.511Z,5.83
2022-09-01T18:55:25.509Z,6.53
2022-09-01T18:57:57.333Z,6.53
2022-09-01T19:00:30.586Z,7.93
2022-09-01T19:03:07.182Z,5.60
2022-09-01T19:05:46.068Z,6.23
2022-09-01T19:08:21.607Z,5.97
2022-09-01T19:10:54.119Z,7.53
2022-09-01T19:13:40.259Z,8.27
2022-09-01T19:16:19.852Z,5.93
2022-09-01T19:18:54.349Z,5.80
2022-09-01T19:21:24.328Z,6.53
2022-09-01T19:23:59.276Z,6.63
2022-09-01T19:26:29.120Z,7.57
2022-09-01T19:29:01.914Z,7.17
2022-09-01T19:31:34.272Z,6.23
2022-09-01T19:34:07.083Z,6.10
2022-09-01T19:36:40.616Z,7.43
2022-09-01T19:39:12.959Z,5.67
2022-09-01T19:41:46.594Z,9.73
2022-09-01T19:44:21.914Z,6.80
2022-09-01T19:46:53.087Z,7.23
2022-09-01T19:49:30.796Z,6.50
2022-09-01T19:52:06.319Z,7.07
2022-09-01T19:54:43.841Z,6.37
2022-09-01T19:57:17.794Z,7.83
2022-09-01T19:59:54.327Z,6.80
2022-09-01T20:02:29.358Z,6.60
2022-09-01T20:05:05.124Z,6.53
2022-09-01T20:07:38.245Z,9.30
2022-09-01T20:10:24.812Z,8.27
2022-09-01T20:13:14.628Z,7.37
2022-09-01T20:15:49.528Z,7.33
2022-09-01T20:18:25.424Z,8.63
2022-09-01T20:20:53.378Z,6.70
2022-09-01T20:23:28.015Z,6.80
2022-09-01T20:26:03.856Z,6.93
2022-09-01T20:28:40.635Z,6.67
2022-09-01T20:31:14.398Z,6.57
2022-09-01T20:33:47.999Z,6.73
2022-09-01T20:36:21.736Z,6.17
2022-09-01T20:39:12.064Z,7.97
2022-09-01T20:41:46.047Z,7.57
2022-09-01T20:44:24.709Z,6.60
2022-09-01T20:46:54.184Z,6.67
2022-09-01T20:49:22.536Z,6.17
2022-09-01T20:51:56.639Z,6.93
2022-09-01T20:54:33.300Z,6.80
2022-09-01T20:57:14.557Z,7.23
2022-09-01T20:59:49.676Z,6.87
2022-09-01T21:02:31.221Z,7.00
2022-09-01T21:05:10.816Z,8.37
2022-09-01T21:07:50.485Z,6.93
2022-09-01T21:10:24.925Z,6.17
2022-09-01T21:13:04.082Z,7.80
2022-09-01T21:15:40.227Z,6.20
2022-09-01T21:18:23.178Z,5.73
2022-09-01T21:21:01.131Z,5.57
2022-09-01T21:23:29.471Z,5.70
2022-09-01T21:25:58.613Z,6.70
2022-09-01T21:28:28.285Z,5.30
2022-09-01T21:30:58.547Z,6.90
2022-09-01T21:33:29.092Z,6.00
2022-09-01T21:35:57.190Z,6.90
2022-09-01T21:38:25.002Z,7.17
2022-09-01T21:40:54.675Z,6.73
2022-09-01T21:43:24.757Z,5.73
2022-09-01T21:45:53.986Z,5.67
2022-09-01T21:48:22.031Z,6.07
2022-09-01T21:50:50.158Z,6.20
2022-09-01T21:53:18.000Z,6.77
2022-09-01T21:55:46.170Z,5.70
2022-09-01T21:58:14.267Z,5.40
2022-09-01T22:00:43.331Z,4.70
2022-09-01T22:03:13.200Z,6.73
2022-09-01T22:05:43.126Z,3.90
2022-09-01T22:08:13.229Z,4.97
2022-09-01T22:10:44.563Z,5.87
2022-09-01T22:13:12.915Z,6.63
2022-09-01T22:15:45.813Z,5.70
2022-09-01T22:18:16.550Z,6.60
2022-09-01T22:20:45.003Z,5.07
2022-09-01T22:23:14.083Z,5.60
2022-09-01T22:25:43.308Z,5.97
2022-09-01T22:28:12.055Z,5.07
2022-09-01T22:30:45.491Z,4.33
2022-09-01T22:33:15.664Z,4.53
2022-09-01T22:35:44.318Z,5.10
2022-09-01T22:38:12.226Z,4.57
2022-09-01T22:40:45.089Z,4.43
2022-09-01T22:43:16.588Z,5.73
2022-09-01T22:45:45.089Z,4.67
2022-09-01T22:48:14.979Z,7.50
2022-09-01T22:50:44.787Z,5.00
2022-09-01T22:53:14.339Z,4.30
2022-09-01T22:55:44.866Z,4.73
2022-09-01T22:58:13.560Z,4.37
2022-09-01T23:00:45.246Z,4.00
2022-09-01T23:03:15.676Z,5.87
2022-09-01T23:05:44.016Z,6.43
2022-09-01T23:08:12.314Z,3.83
2022-09-01T23:10:40.956Z,4.20
2022-09-01T23:13:08.784Z,5.33
2022-09-01T23:15:36.771Z,5.70
2022-09-01T23:18:04.643Z,4.00
2022-09-01T23:20:33.782Z,4.93
2022-09-01T23:23:03.871Z,4.53
2022-09-01T23:25:31.824Z,4.07
2022-09-01T23:27:59.602Z,3.60
2022-09-01T23:30:27.396Z,6.63
2022-09-01T23:32:55.240Z,3.43
2022-09-01T23:35:23.057Z,5.37
2022-09-01T23:37:52.175Z,5.03
2022-09-01T23:40:20.271Z,4.00
2022-09-01T23:42:48.099Z,4.47
2022-09-01T23:45:15.900Z,3.40
2022-09-01T23:47:43.738Z,6.77
2022-09-01T23:50:12.126Z,4.03
2022-09-01T23:52:40.357Z,3.37
2022-09-01T23:55:10.611Z,4.37
2022-09-01T23:57:38.543Z,5.40
